createdAt,value
2019-04-30T00:00:15.889Z,9.70
2019-04-30T00:03:02.464Z,9.80
2019-04-30T00:05:29.252Z,9.70
2019-04-30T00:07:58.468Z,9.60
2019-04-30T00:10:29.113Z,9.60
2019-04-30T00:12:55.324Z,9.70
2019-04-30T00:15:22.076Z,9.70
2019-04-30T00:17:52.826Z,9.60
2019-04-30T00:20:18.396Z,9.70
2019-04-30T00:22:47.065Z,9.60
2019-04-30T00:25:15.208Z,9.70
2019-04-30T00:27:42.184Z,9.70
2019-04-30T00:30:09.262Z,9.70
2019-04-30T00:32:37.221Z,9.80
2019-04-30T00:35:07.319Z,9.70
2019-04-30T00:37:35.233Z,9.60
2019-04-30T00:40:05.558Z,9.60
2019-04-30T00:42:31.500Z,9.60
2019-04-30T00:44:59.738Z,9.50
2019-04-30T00:47:26.913Z,9.70
2019-04-30T00:49:58.933Z,9.70
2019-04-30T00:52:22.178Z,9.60
2019-04-30T00:54:48.854Z,9.60
2019-04-30T00:57:15.828Z,9.70
2019-04-30T00:59:44.663Z,9.70
2019-04-30T01:02:20.180Z,9.70
2019-04-30T01:04:45.796Z,9.70
2019-04-30T01:07:15.591Z,9.40
2019-04-30T01:09:46.505Z,9.40
2019-04-30T01:12:10.142Z,9.40
2019-04-30T01:14:38.575Z,9.50
2019-04-30T01:17:08.866Z,9.40
2019-04-30T01:19:34.087Z,9.60
2019-04-30T01:22:00.779Z,9.40
2019-04-30T01:24:31.583Z,9.30
2019-04-30T01:27:02.106Z,9.30
2019-04-30T01:29:31.127Z,9.40
2019-04-30T01:31:55.212Z,9.50
2019-04-30T01:34:22.065Z,9.40
2019-04-30T01:36:52.249Z,9.30
2019-04-30T01:39:17.173Z,9.40
2019-04-30T01:41:43.876Z,9.40
2019-04-30T01:44:11.937Z,9.40
2019-04-30T01:46:39.062Z,9.40
2019-04-30T01:49:05.814Z,9.50
2019-04-30T01:51:32.460Z,9.60
2019-04-30T01:53:59.456Z,9.50
2019-04-30T01:56:28.910Z,9.60
2019-04-30T01:59:03.312Z,9.40
2019-04-30T02:01:31.845Z,9.40
2019-04-30T02:03:58.609Z,9.30
2019-04-30T02:06:25.240Z,9.40
2019-04-30T02:08:51.912Z,9.40
2019-04-30T02:11:18.982Z,9.40
2019-04-30T02:13:45.963Z,9.50
2019-04-30T02:16:12.644Z,9.50
2019-04-30T02:18:39.451Z,9.40
2019-04-30T02:21:06.248Z,9.10
2019-04-30T02:23:33.177Z,9.20
2019-04-30T02:25:59.937Z,9.10
2019-04-30T02:28:28.846Z,9.30
2019-04-30T02:30:55.422Z,9.30
2019-04-30T02:33:22.135Z,9.30
2019-04-30T02:35:50.689Z,9.20
2019-04-30T02:38:21.779Z,9.30
2019-04-30T02:40:50.003Z,9.20
2019-04-30T02:43:20.386Z,9.20
2019-04-30T02:45:50.039Z,9.10
2019-04-30T02:48:20.392Z,9.10
2019-04-30T02:50:50.276Z,8.90
2019-04-30T02:53:50.962Z,9.00
2019-04-30T02:56:20.215Z,8.90
2019-04-30T02:58:47.143Z,8.80
2019-04-30T03:01:14.084Z,8.90
2019-04-30T03:03:42.668Z,8.80
2019-04-30T03:06:11.566Z,8.80
2019-04-30T03:08:40.359Z,8.80
2019-04-30T03:11:09.769Z,8.60
2019-04-30T03:13:37.773Z,8.60
2019-04-30T03:16:03.278Z,8.70
2019-04-30T03:18:31.825Z,8.60
2019-04-30T03:21:00.420Z,8.50
2019-04-30T03:23:29.389Z,8.70
2019-04-30T03:25:55.571Z,8.60
2019-04-30T03:28:22.189Z,8.70
2019-04-30T03:30:51.887Z,8.60
2019-04-30T03:33:22.306Z,8.70
2019-04-30T03:35:47.716Z,8.70
2019-04-30T03:38:14.361Z,8.60
2019-04-30T03:40:41.022Z,8.40
2019-04-30T03:43:09.957Z,8.50
2019-04-30T03:45:36.144Z,8.50
2019-04-30T03:48:02.800Z,8.60
2019-04-30T03:50:48.148Z,8.60
2019-04-30T03:53:00.207Z,8.50
2019-04-30T03:55:26.471Z,8.40
2019-04-30T03:57:53.102Z,8.40
2019-04-30T04:00:21.725Z,8.50
2019-04-30T04:02:50.160Z,8.50
2019-04-30T04:05:21.544Z,8.30
2019-04-30T04:07:59.848Z,8.20
2019-04-30T04:10:45.331Z,8.10
2019-04-30T04:13:12.188Z,8.20
2019-04-30T04:15:39.987Z,8.30
2019-04-30T04:18:06.889Z,8.20
2019-04-30T04:20:33.574Z,8.20
2019-04-30T04:23:00.378Z,8.00
2019-04-30T04:25:29.679Z,8.00
2019-04-30T04:27:55.521Z,8.10
2019-04-30T04:30:22.141Z,8.00
2019-04-30T04:32:50.135Z,8.20
2019-04-30T04:35:19.493Z,7.90
2019-04-30T04:37:45.453Z,8.00
2019-04-30T04:40:12.265Z,8.00
2019-04-30T04:42:39.585Z,8.20
2019-04-30T04:45:09.693Z,8.40
2019-04-30T04:47:35.364Z,8.10
2019-04-30T04:50:04.201Z,8.00
2019-04-30T04:52:31.750Z,8.20
2019-04-30T04:55:00.356Z,8.00
2019-04-30T04:57:27.048Z,8.10
2019-04-30T04:59:53.972Z,8.10
2019-04-30T05:02:34.509Z,8.20
2019-04-30T05:05:01.194Z,8.30
2019-04-30T05:07:28.678Z,8.10
2019-04-30T05:09:55.511Z,8.20
2019-04-30T05:12:22.160Z,8.20
2019-04-30T05:14:48.795Z,8.10
2019-04-30T05:17:15.769Z,8.20
2019-04-30T05:19:42.480Z,7.90
2019-04-30T05:22:09.282Z,8.10
2019-04-30T05:24:36.071Z,8.00
2019-04-30T05:27:02.800Z,8.30
2019-04-30T05:29:30.666Z,8.30
2019-04-30T05:31:58.554Z,8.20
2019-04-30T05:34:25.255Z,8.40
2019-04-30T05:36:51.882Z,8.20
2019-04-30T05:39:18.913Z,8.40
2019-04-30T05:41:45.724Z,8.30
2019-04-30T05:44:12.399Z,8.50
2019-04-30T05:46:39.746Z,8.70
2019-04-30T05:49:06.559Z,8.60
2019-04-30T05:51:33.321Z,8.60
2019-04-30T05:54:00.118Z,8.60
2019-04-30T05:56:30.184Z,8.70
2019-04-30T05:58:55.341Z,9.10
2019-04-30T06:01:24.251Z,8.80
2019-04-30T06:03:50.553Z,8.90
2019-04-30T06:06:19.151Z,9.10
2019-04-30T06:08:49.095Z,9.20
2019-04-30T06:11:20.562Z,9.10
2019-04-30T06:14:01.026Z,9.30
2019-04-30T06:16:29.793Z,9.30
2019-04-30T06:18:58.481Z,9.60
2019-04-30T06:21:25.233Z,9.40
2019-04-30T06:23:51.968Z,9.40
2019-04-30T06:26:20.680Z,9.60
2019-04-30T06:28:49.278Z,9.90
2019-04-30T06:31:16.017Z,9.50
2019-04-30T06:33:42.670Z,9.50
2019-04-30T06:36:11.177Z,9.70
2019-04-30T06:38:38.704Z,9.80
2019-04-30T06:41:05.381Z,9.60
2019-04-30T06:43:32.309Z,9.70
2019-04-30T06:45:59.082Z,9.80
2019-04-30T06:48:29.471Z,9.70
2019-04-30T06:50:56.141Z,10.00
2019-04-30T06:53:22.821Z,10.00
2019-04-30T06:55:49.440Z,10.10
2019-04-30T06:58:16.139Z,10.10
2019-04-30T07:00:42.900Z,10.20
2019-04-30T07:03:09.964Z,10.30
2019-04-30T07:05:38.938Z,10.30
2019-04-30T07:08:36.386Z,10.30
2019-04-30T07:11:11.486Z,10.30
2019-04-30T07:13:39.493Z,10.50
2019-04-30T07:16:06.251Z,10.60
2019-04-30T07:18:32.881Z,10.70
2019-04-30T07:20:59.549Z,10.90
2019-04-30T07:23:28.230Z,10.70
2019-04-30T07:25:55.127Z,10.80
2019-04-30T07:28:21.771Z,10.90
2019-04-30T07:30:51.222Z,11.10
2019-04-30T07:33:17.012Z,10.90
2019-04-30T07:35:43.681Z,11.20
2019-04-30T07:38:10.331Z,11.30
2019-04-30T07:40:38.945Z,11.30
2019-04-30T07:43:08.882Z,11.40
2019-04-30T07:45:34.005Z,11.50
2019-04-30T07:48:00.645Z,11.50
2019-04-30T07:50:30.163Z,11.70
2019-04-30T07:53:04.883Z,11.40
2019-04-30T07:55:26.458Z,11.20
2019-04-30T07:57:53.098Z,11.40
2019-04-30T08:00:19.777Z,11.60
2019-04-30T08:02:54.166Z,11.40
2019-04-30T08:05:22.727Z,11.70
2019-04-30T08:07:49.799Z,11.90
2019-04-30T08:10:18.636Z,11.90
2019-04-30T08:12:45.594Z,11.80
2019-04-30T08:15:12.693Z,12.00
2019-04-30T08:17:39.440Z,12.20
2019-04-30T08:20:08.680Z,12.30
2019-04-30T08:22:36.072Z,12.60
2019-04-30T08:25:04.789Z,12.60
2019-04-30T08:27:31.438Z,12.40
2019-04-30T08:30:00.056Z,12.30
2019-04-30T08:32:28.978Z,12.40
2019-04-30T08:34:56.584Z,12.70
2019-04-30T08:37:23.252Z,12.70
2019-04-30T08:39:49.944Z,12.80
2019-04-30T08:42:29.082Z,12.90
2019-04-30T08:44:45.116Z,13.00
2019-04-30T08:47:11.869Z,12.90
2019-04-30T08:49:40.317Z,13.20
2019-04-30T08:52:10.595Z,13.40
2019-04-30T08:54:35.740Z,13.30
2019-04-30T08:57:02.428Z,13.40
2019-04-30T08:59:29.571Z,13.50
2019-04-30T09:01:56.275Z,13.50
2019-04-30T09:04:28.954Z,13.70
2019-04-30T09:06:55.353Z,13.80
2019-04-30T09:09:22.438Z,13.90
2019-04-30T09:11:55.191Z,13.70
2019-04-30T09:14:18.660Z,14.00
2019-04-30T09:16:45.502Z,13.90
2019-04-30T09:19:12.494Z,14.10
2019-04-30T09:21:40.208Z,14.40
2019-04-30T09:24:06.911Z,14.00
2019-04-30T09:26:33.587Z,14.10
2019-04-30T09:29:00.399Z,14.30
2019-04-30T09:31:29.383Z,14.30
2019-04-30T09:33:57.835Z,14.40
2019-04-30T09:36:24.180Z,14.70
2019-04-30T09:38:50.857Z,14.70
2019-04-30T09:41:19.255Z,14.50
2019-04-30T09:43:46.054Z,14.80
2019-04-30T09:46:22.022Z,14.60
2019-04-30T09:48:43.089Z,14.70
2019-04-30T09:51:10.975Z,14.80
2019-04-30T09:53:39.415Z,14.60
2019-04-30T09:56:06.600Z,14.70
2019-04-30T09:58:34.277Z,15.20
2019-04-30T10:01:01.092Z,15.00
2019-04-30T10:03:30.290Z,15.10
2019-04-30T10:05:56.346Z,14.80
2019-04-30T10:08:23.353Z,15.30
2019-04-30T10:10:53.125Z,15.70
2019-04-30T10:13:20.111Z,15.70
2019-04-30T10:15:58.543Z,15.30
2019-04-30T10:18:25.516Z,15.40
2019-04-30T10:20:52.253Z,15.40
2019-04-30T10:23:19.450Z,15.50
2019-04-30T10:25:46.595Z,15.70
2019-04-30T10:28:13.361Z,15.50
2019-04-30T10:30:40.141Z,15.60
2019-04-30T10:33:06.936Z,15.30
2019-04-30T10:35:34.014Z,15.90
2019-04-30T10:38:00.857Z,16.40
2019-04-30T10:40:28.714Z,15.70
2019-04-30T10:42:58.683Z,15.30
2019-04-30T10:45:43.897Z,15.40
2019-04-30T10:48:11.551Z,16.10
2019-04-30T10:50:40.718Z,16.30
2019-04-30T10:53:06.845Z,16.20
2019-04-30T10:55:33.580Z,16.30
2019-04-30T10:58:00.274Z,16.20
2019-04-30T11:00:39.009Z,16.40
2019-04-30T11:03:18.642Z,16.30
2019-04-30T11:05:35.204Z,16.90
2019-04-30T11:08:01.994Z,16.80
2019-04-30T11:10:30.856Z,17.10
2019-04-30T11:12:57.537Z,17.10
2019-04-30T11:15:24.182Z,17.10
2019-04-30T11:17:51.022Z,17.50
2019-04-30T11:20:21.698Z,16.90
2019-04-30T11:22:46.601Z,17.10
2019-04-30T11:25:13.747Z,17.20
2019-04-30T11:27:41.612Z,17.40
2019-04-30T11:30:20.745Z,17.70
2019-04-30T11:32:37.609Z,17.70
2019-04-30T11:35:05.539Z,17.30
2019-04-30T11:37:32.191Z,17.30
2019-04-30T11:40:00.742Z,17.30
2019-04-30T11:42:27.873Z,17.50
2019-04-30T11:44:54.725Z,17.40
2019-04-30T11:47:26.425Z,16.90
2019-04-30T11:49:53.619Z,17.60
2019-04-30T11:52:20.715Z,17.80
2019-04-30T11:54:51.388Z,17.80
2019-04-30T11:57:15.966Z,17.30
2019-04-30T11:59:42.818Z,17.70
2019-04-30T12:02:15.909Z,17.80
2019-04-30T12:04:42.534Z,17.50
2019-04-30T12:07:15.408Z,17.90
2019-04-30T12:09:56.263Z,17.80
2019-04-30T12:12:24.190Z,18.20
2019-04-30T12:14:50.838Z,18.00
2019-04-30T12:17:17.688Z,18.00
2019-04-30T12:19:45.552Z,18.20
2019-04-30T12:22:12.212Z,18.20
2019-04-30T12:24:38.993Z,17.90
2019-04-30T12:27:05.880Z,18.20
2019-04-30T12:29:32.623Z,18.20
2019-04-30T12:31:59.349Z,18.40
2019-04-30T12:34:26.009Z,18.50
2019-04-30T12:36:52.717Z,18.40
2019-04-30T12:39:21.180Z,18.60
2019-04-30T12:41:52.070Z,18.80
2019-04-30T12:44:18.855Z,18.70
2019-04-30T12:46:45.840Z,18.40
2019-04-30T12:49:13.225Z,18.30
2019-04-30T12:51:45.824Z,19.10
2019-04-30T12:54:14.990Z,18.80
2019-04-30T12:56:46.958Z,18.60
2019-04-30T12:59:13.558Z,18.60
2019-04-30T13:01:42.195Z,18.70
2019-04-30T13:04:09.897Z,19.00
2019-04-30T13:06:37.664Z,18.50
2019-04-30T13:09:10.197Z,18.50
2019-04-30T13:11:37.258Z,18.40
2019-04-30T13:14:05.613Z,18.70
2019-04-30T13:16:32.596Z,19.10
2019-04-30T13:18:59.435Z,18.60
2019-04-30T13:21:26.188Z,18.60
2019-04-30T13:23:52.857Z,18.90
2019-04-30T13:26:19.537Z,19.40
2019-04-30T13:28:48.265Z,18.80
2019-04-30T13:31:15.038Z,18.80
2019-04-30T13:33:58.265Z,18.80
2019-04-30T13:36:23.777Z,18.90
2019-04-30T13:38:52.514Z,18.40
2019-04-30T13:41:37.687Z,18.60
2019-04-30T13:44:04.537Z,18.70
2019-04-30T13:46:31.264Z,18.60
2019-04-30T13:48:58.622Z,19.10
2019-04-30T13:51:25.393Z,19.20
2019-04-30T13:53:52.279Z,18.90
2019-04-30T13:56:20.241Z,19.10
2019-04-30T13:58:47.587Z,19.00
2019-04-30T14:01:14.328Z,18.60
2019-04-30T14:03:54.960Z,18.60
2019-04-30T14:06:26.405Z,18.40
2019-04-30T14:08:54.975Z,19.00
2019-04-30T14:11:21.617Z,19.20
2019-04-30T14:13:48.538Z,19.00
2019-04-30T14:16:15.250Z,19.10
2019-04-30T14:18:41.944Z,19.30
2019-04-30T14:21:09.335Z,18.90
2019-04-30T14:23:36.184Z,18.60
2019-04-30T14:26:02.896Z,18.80
2019-04-30T14:28:29.728Z,18.90
2019-04-30T14:30:56.499Z,19.30
2019-04-30T14:33:26.460Z,18.90
2019-04-30T14:35:51.802Z,19.30
2019-04-30T14:38:19.072Z,19.20
2019-04-30T14:40:46.190Z,18.70
2019-04-30T14:43:21.290Z,19.00
2019-04-30T14:45:53.490Z,19.10
2019-04-30T14:48:26.291Z,19.10
2019-04-30T14:50:55.010Z,18.80
2019-04-30T14:53:42.050Z,18.80
2019-04-30T14:56:11.740Z,19.00
2019-04-30T14:58:46.570Z,18.80
2019-04-30T15:01:30.334Z,18.90
2019-04-30T15:03:56.952Z,18.80
2019-04-30T15:06:23.740Z,18.80
2019-04-30T15:08:50.431Z,18.70
2019-04-30T15:11:18.905Z,18.80
2019-04-30T15:13:45.911Z,18.70
2019-04-30T15:16:12.594Z,18.70
2019-04-30T15:18:39.323Z,18.40
2019-04-30T15:21:06.016Z,18.20
2019-04-30T15:23:58.771Z,18.70
2019-04-30T15:26:22.965Z,18.50
2019-04-30T15:28:46.656Z,18.40
2019-04-30T15:31:13.544Z,18.40
2019-04-30T15:33:45.179Z,18.50
2019-04-30T15:36:12.556Z,18.60
2019-04-30T15:38:56.247Z,18.20
2019-04-30T15:41:23.050Z,18.00
2019-04-30T15:43:49.906Z,18.30
2019-04-30T15:46:16.791Z,18.20
2019-04-30T15:48:43.620Z,18.30
2019-04-30T15:51:10.684Z,18.10
2019-04-30T15:53:37.412Z,18.00
2019-04-30T15:56:04.094Z,17.90
2019-04-30T15:58:32.755Z,17.80
2019-04-30T16:00:59.992Z,17.70
2019-04-30T16:03:31.873Z,17.80
2019-04-30T16:05:58.635Z,17.60
2019-04-30T16:08:33.033Z,17.60
2019-04-30T16:11:10.373Z,17.70
2019-04-30T16:13:54.753Z,17.40
2019-04-30T16:16:21.969Z,17.30
2019-04-30T16:18:49.877Z,17.20
2019-04-30T16:21:16.493Z,17.30
2019-04-30T16:23:43.153Z,17.40
2019-04-30T16:26:09.873Z,17.30
2019-04-30T16:28:36.537Z,17.10
2019-04-30T16:31:03.258Z,17.20
2019-04-30T16:33:30.077Z,17.20
2019-04-30T16:35:58.690Z,17.10
2019-04-30T16:38:25.646Z,17.20
2019-04-30T16:40:52.296Z,17.30
2019-04-30T16:43:20.388Z,17.30
2019-04-30T16:45:49.335Z,17.20
2019-04-30T16:48:15.917Z,17.10
2019-04-30T16:50:42.718Z,17.00
2019-04-30T16:53:09.385Z,16.90
2019-04-30T16:55:37.254Z,16.90
2019-04-30T16:58:03.940Z,17.00
2019-04-30T17:00:32.059Z,16.80
2019-04-30T17:03:00.632Z,16.90
2019-04-30T17:05:31.698Z,16.80
2019-04-30T17:08:11.996Z,16.70
2019-04-30T17:10:44.432Z,16.60
2019-04-30T17:13:21.909Z,16.50
2019-04-30T17:15:50.489Z,16.60
2019-04-30T17:18:18.932Z,16.60
2019-04-30T17:20:45.608Z,16.60
2019-04-30T17:23:12.419Z,16.60
2019-04-30T17:25:39.049Z,16.40
2019-04-30T17:28:05.705Z,16.40
2019-04-30T17:30:32.488Z,16.30
2019-04-30T17:32:59.775Z,16.30
2019-04-30T17:35:28.834Z,16.40
2019-04-30T17:37:55.091Z,16.10
2019-04-30T17:40:21.884Z,16.10
2019-04-30T17:42:49.834Z,16.20
2019-04-30T17:45:19.461Z,16.20
2019-04-30T17:47:45.421Z,16.10
2019-04-30T17:50:12.368Z,16.10
2019-04-30T17:52:39.031Z,16.20
2019-04-30T17:55:06.867Z,16.20
2019-04-30T17:57:34.682Z,16.20
2019-04-30T18:00:01.924Z,16.20
2019-04-30T18:02:30.491Z,16.10
2019-04-30T18:04:57.161Z,16.00
2019-04-30T18:07:23.867Z,16.00
2019-04-30T18:09:50.546Z,16.00
2019-04-30T18:12:19.457Z,16.00
2019-04-30T18:14:45.762Z,15.90
2019-04-30T18:17:12.543Z,15.80
2019-04-30T18:19:43.871Z,15.80
2019-04-30T18:22:12.400Z,15.80
2019-04-30T18:24:46.507Z,15.80
2019-04-30T18:27:20.960Z,15.80
2019-04-30T18:29:46.040Z,15.80
2019-04-30T18:32:14.935Z,15.70
2019-04-30T18:34:41.536Z,15.50
2019-04-30T18:37:08.976Z,15.60
2019-04-30T18:39:35.879Z,15.50
2019-04-30T18:42:02.536Z,15.40
2019-04-30T18:44:29.552Z,15.50
2019-04-30T18:46:56.428Z,15.50
2019-04-30T18:49:23.103Z,15.20
2019-04-30T18:51:49.808Z,15.20
2019-04-30T18:54:18.366Z,15.40
2019-04-30T18:56:45.290Z,15.20
2019-04-30T18:59:11.983Z,15.10
2019-04-30T19:01:38.610Z,15.20
2019-04-30T19:04:05.272Z,15.20
2019-04-30T19:06:32.223Z,14.90
2019-04-30T19:09:03.602Z,14.90
2019-04-30T19:11:34.719Z,15.00
2019-04-30T19:14:19.343Z,14.90
2019-04-30T19:16:49.560Z,15.00
2019-04-30T19:19:30.872Z,14.80
2019-04-30T19:21:58.671Z,14.80
2019-04-30T19:24:25.424Z,14.80
2019-04-30T19:26:52.104Z,14.60
2019-04-30T19:29:18.740Z,14.60
2019-04-30T19:31:45.420Z,14.50
2019-04-30T19:34:12.076Z,14.40
2019-04-30T19:36:40.669Z,14.70
2019-04-30T19:39:09.348Z,14.90
2019-04-30T19:41:36.020Z,14.70
2019-04-30T19:44:02.925Z,14.50
2019-04-30T19:46:29.604Z,14.60
2019-04-30T19:48:58.451Z,14.50
2019-04-30T19:51:24.896Z,14.70
2019-04-30T19:53:51.596Z,14.80
2019-04-30T19:56:20.407Z,14.50
2019-04-30T19:58:59.557Z,14.50
2019-04-30T20:01:15.216Z,14.60
2019-04-30T20:03:41.857Z,14.60
2019-04-30T20:06:09.023Z,14.60
2019-04-30T20:08:35.943Z,14.60
2019-04-30T20:11:02.732Z,14.40
2019-04-30T20:13:36.549Z,14.50
2019-04-30T20:15:59.422Z,14.40
2019-04-30T20:18:26.241Z,14.40
2019-04-30T20:20:55.785Z,14.50
2019-04-30T20:23:22.729Z,14.70
2019-04-30T20:25:49.405Z,14.60
2019-04-30T20:28:16.181Z,14.50
2019-04-30T20:30:42.800Z,14.40
2019-04-30T20:33:10.462Z,14.40
2019-04-30T20:35:39.006Z,14.20
2019-04-30T20:38:25.784Z,14.00
2019-04-30T20:41:00.266Z,14.40
2019-04-30T20:43:21.056Z,14.40
2019-04-30T20:45:47.859Z,14.50
2019-04-30T20:48:14.523Z,14.40
2019-04-30T20:50:41.211Z,14.40
2019-04-30T20:53:08.872Z,14.20
2019-04-30T20:55:35.791Z,14.00
2019-04-30T20:58:02.498Z,14.20
2019-04-30T21:00:29.212Z,14.30
2019-04-30T21:02:55.954Z,14.00
2019-04-30T21:05:22.769Z,14.10
2019-04-30T21:07:49.542Z,14.10
2019-04-30T21:10:16.415Z,14.00
2019-04-30T21:12:43.097Z,14.00
2019-04-30T21:15:10.290Z,13.90
2019-04-30T21:17:36.936Z,14.00
2019-04-30T21:20:09.645Z,14.00
2019-04-30T21:22:38.851Z,14.10
2019-04-30T21:25:06.147Z,14.00
2019-04-30T21:27:32.859Z,13.90
2019-04-30T21:29:59.648Z,14.10
2019-04-30T21:32:44.596Z,14.10
2019-04-30T21:35:19.024Z,13.80
2019-04-30T21:37:46.575Z,14.00
2019-04-30T21:40:14.395Z,13.40
2019-04-30T21:42:42.616Z,13.40
2019-04-30T21:45:09.276Z,13.40
2019-04-30T21:47:36.037Z,13.40
2019-04-30T21:50:05.231Z,13.20
2019-04-30T21:52:31.921Z,13.00
2019-04-30T21:54:59.579Z,13.50
2019-04-30T21:57:26.639Z,13.60
2019-04-30T21:59:53.433Z,13.70
2019-04-30T22:02:20.157Z,13.90
2019-04-30T22:04:46.855Z,13.90
2019-04-30T22:07:13.506Z,13.80
2019-04-30T22:09:40.213Z,13.40
2019-04-30T22:12:09.203Z,13.40
2019-04-30T22:14:36.022Z,13.10
2019-04-30T22:17:02.783Z,13.40
2019-04-30T22:19:30.059Z,13.30
2019-04-30T22:21:56.760Z,13.60
2019-04-30T22:24:23.847Z,13.40
2019-04-30T22:26:50.575Z,13.00
2019-04-30T22:29:19.035Z,12.90
2019-04-30T22:31:45.721Z,13.00
2019-04-30T22:34:12.847Z,13.00
2019-04-30T22:36:41.304Z,12.80
2019-04-30T22:39:24.721Z,12.90
2019-04-30T22:41:59.648Z,13.20
2019-04-30T22:44:26.275Z,13.50
2019-04-30T22:46:53.032Z,13.30
2019-04-30T22:49:19.696Z,13.40
2019-04-30T22:51:46.387Z,13.50
2019-04-30T22:54:13.107Z,13.20
2019-04-30T22:56:39.883Z,13.30
2019-04-30T22:59:06.544Z,13.00
2019-04-30T23:01:35.133Z,13.20
2019-04-30T23:04:03.712Z,12.80
2019-04-30T23:06:30.368Z,13.20
2019-04-30T23:08:57.024Z,13.10
2019-04-30T23:11:24.154Z,13.20
2019-04-30T23:13:50.827Z,13.00
2019-04-30T23:16:17.613Z,12.70
2019-04-30T23:18:44.235Z,12.90
2019-04-30T23:21:10.893Z,12.80
2019-04-30T23:23:37.549Z,12.50
2019-04-30T23:26:04.211Z,12.50
2019-04-30T23:28:30.864Z,12.50
2019-04-30T23:30:57.552Z,12.40
2019-04-30T23:33:24.176Z,12.20
2019-04-30T23:35:50.993Z,12.20
2019-04-30T23:38:17.664Z,12.10
2019-04-30T23:40:49.930Z,11.90
2019-04-30T23:43:18.427Z,12.10
2019-04-30T23:45:45.111Z,12.60
2019-04-30T23:48:11.738Z,12.40
2019-04-30T23:50:39.573Z,12.40
2019-04-30T23:53:06.231Z,12.60
2019-04-30T23:55:32.911Z,12.70
2019-04-30T23:57:59.543Z,12.60
